sensor_id;sensor_type;location;lat;lon;timestamp;pressure;altitude;pressure_sealevel;temperature;humidity
63190;BME280;49286;44.460;26.114;2023-11-22T00:01:11;100255.50;;;7.26;100.00
63190;BME280;49286;44.460;26.114;2023-11-22T00:03:37;100187.28;;;6.87;100.00
63190;BME280;49286;44.460;26.114;2023-11-22T00:06:02;100130.47;;;6.59;100.00
63190;BME280;49286;44.460;26.114;2023-11-22T00:08:28;100162.22;;;7.00;100.00
63190;BME280;49286;44.460;26.114;2023-11-22T00:10:54;100204.91;;;7.10;100.00
63190;BME280;49286;44.460;26.114;2023-11-22T00:13:20;100237.38;;;7.36;100.00
63190;BME280;49286;44.460;26.114;2023-11-22T00:15:46;100218.88;;;7.15;100.00
63190;BME280;49286;44.460;26.114;2023-11-22T00:18:11;100141.94;;;6.76;100.00
63190;BME280;49286;44.460;26.114;2023-11-22T00:20:36;100124.53;;;6.73;100.00
63190;BME280;49286;44.460;26.114;2023-11-22T00:23:02;100161.19;;;6.87;100.00
63190;BME280;49286;44.460;26.114;2023-11-22T00:25:28;100143.84;;;6.92;100.00
63190;BME280;49286;44.460;26.114;2023-11-22T00:28:00;100211.28;;;7.39;100.00
63190;BME280;49286;44.460;26.114;2023-11-22T00:30:27;100158.97;;;7.24;100.00
63190;BME280;49286;44.460;26.114;2023-11-22T00:32:52;100196.59;;;7.51;100.00
63190;BME280;49286;44.460;26.114;2023-11-22T00:35:18;100109.22;;;7.09;100.00
63190;BME280;49286;44.460;26.114;2023-11-22T00:37:43;100195.75;;;7.50;100.00
63190;BME280;49286;44.460;26.114;2023-11-22T00:40:09;100227.28;;;7.75;100.00
63190;BME280;49286;44.460;26.114;2023-11-22T00:42:38;100210.28;;;7.25;100.00
63190;BME280;49286;44.460;26.114;2023-11-22T00:45:06;100177.88;;;7.03;100.00
63190;BME280;49286;44.460;26.114;2023-11-22T00:47:32;100107.84;;;6.56;100.00
63190;BME280;49286;44.460;26.114;2023-11-22T00:49:58;100191.78;;;7.01;100.00
63190;BME280;49286;44.460;26.114;2023-11-22T00:52:24;100202.44;;;7.25;100.00
63190;BME280;49286;44.460;26.114;2023-11-22T00:54:50;100219.22;;;7.47;100.00
63190;BME280;49286;44.460;26.114;2023-11-22T00:57:16;100157.00;;;7.03;100.00
63190;BME280;49286;44.460;26.114;2023-11-22T00:59:42;100221.88;;;7.55;100.00
63190;BME280;49286;44.460;26.114;2023-11-22T01:02:07;100185.19;;;7.38;100.00
63190;BME280;49286;44.460;26.114;2023-11-22T01:04:34;100221.81;;;7.47;100.00
63190;BME280;49286;44.460;26.114;2023-11-22T01:07:02;100121.34;;;7.02;100.00
63190;BME280;49286;44.460;26.114;2023-11-22T01:09:29;100221.06;;;7.59;100.00
63190;BME280;49286;44.460;26.114;2023-11-22T01:11:57;100124.84;;;7.04;100.00
63190;BME280;49286;44.460;26.114;2023-11-22T01:14:22;100113.34;;;6.85;100.00
63190;BME280;49286;44.460;26.114;2023-11-22T01:16:49;100189.22;;;7.07;100.00
63190;BME280;49286;44.460;26.114;2023-11-22T01:19:14;100231.16;;;7.25;100.00
63190;BME280;49286;44.460;26.114;2023-11-22T01:21:41;100181.28;;;6.97;100.00
63190;BME280;49286;44.460;26.114;2023-11-22T01:24:07;100219.00;;;7.27;100.00
63190;BME280;49286;44.460;26.114;2023-11-22T01:26:32;100107.00;;;6.60;100.00
63190;BME280;49286;44.460;26.114;2023-11-22T01:28:57;100128.84;;;6.70;100.00
63190;BME280;49286;44.460;26.114;2023-11-22T01:31:25;100157.81;;;6.97;100.00
63190;BME280;49286;44.460;26.114;2023-11-22T01:33:53;100102.69;;;6.61;100.00
63190;BME280;49286;44.460;26.114;2023-11-22T01:36:19;100205.00;;;7.17;100.00
63190;BME280;49286;44.460;26.114;2023-11-22T01:38:44;100192.06;;;7.28;100.00
63190;BME280;49286;44.460;26.114;2023-11-22T01:41:12;100216.66;;;7.52;100.00
63190;BME280;49286;44.460;26.114;2023-11-22T01:43:41;100200.94;;;7.49;100.00
63190;BME280;49286;44.460;26.114;2023-11-22T01:46:08;100221.03;;;7.57;100.00
63190;BME280;49286;44.460;26.114;2023-11-22T01:48:35;100210.44;;;7.40;100.00
63190;BME280;49286;44.460;26.114;2023-11-22T01:51:03;100101.22;;;6.89;100.00
63190;BME280;49286;44.460;26.114;2023-11-22T01:53:29;100213.97;;;7.49;100.00
63190;BME280;49286;44.460;26.114;2023-11-22T01:55:57;100123.00;;;6.91;100.00
63190;BME280;49286;44.460;26.114;2023-11-22T01:58:22;100188.63;;;7.34;100.00
63190;BME280;49286;44.460;26.114;2023-11-22T02:00:49;100150.16;;;7.16;100.00
63190;BME280;49286;44.460;26.114;2023-11-22T02:03:16;100117.78;;;6.92;100.00
63190;BME280;49286;44.460;26.114;2023-11-22T02:05:42;100121.25;;;6.93;100.00
63190;BME280;49286;44.460;26.114;2023-11-22T02:08:11;100145.84;;;7.16;100.00
63190;BME280;49286;44.460;26.114;2023-11-22T02:10:37;100011.13;;;6.30;100.00
63190;BME280;49286;44.460;26.114;2023-11-22T02:13:04;100165.06;;;7.25;100.00
63190;BME280;49286;44.460;26.114;2023-11-22T02:15:36;100177.28;;;7.29;100.00
63190;BME280;49286;44.460;26.114;2023-11-22T02:18:03;100182.53;;;7.33;100.00
63190;BME280;49286;44.460;26.114;2023-11-22T02:20:30;100183.44;;;7.38;100.00
63190;BME280;49286;44.460;26.114;2023-11-22T02:23:11;100164.25;;;7.32;100.00
63190;BME280;49286;44.460;26.114;2023-11-22T02:25:37;100180.84;;;7.42;100.00
63190;BME280;49286;44.460;26.114;2023-11-22T02:28:03;100196.59;;;7.48;100.00
63190;BME280;49286;44.460;26.114;2023-11-22T02:30:28;100206.16;;;7.47;100.00
63190;BME280;49286;44.460;26.114;2023-11-22T02:32:54;100213.97;;;7.46;100.00
63190;BME280;49286;44.460;26.114;2023-11-22T02:35:19;100166.75;;;7.19;100.00
63190;BME280;49286;44.460;26.114;2023-11-22T02:37:45;100209.50;;;7.31;100.00
63190;BME280;49286;44.460;26.114;2023-11-22T02:40:20;100135.97;;;6.88;100.00
63190;BME280;49286;44.460;26.114;2023-11-22T02:42:50;100212.06;;;7.26;100.00
63190;BME280;49286;44.460;26.114;2023-11-22T02:45:17;100225.22;;;7.38;100.00
63190;BME280;49286;44.460;26.114;2023-11-22T02:47:54;100193.63;;;7.14;100.00
63190;BME280;49286;44.460;26.114;2023-11-22T02:50:26;100106.19;;;6.64;100.00
63190;BME280;49286;44.460;26.114;2023-11-22T02:52:53;100188.41;;;7.11;100.00
63190;BME280;49286;44.460;26.114;2023-11-22T02:55:18;100232.13;;;7.35;100.00
63190;BME280;49286;44.460;26.114;2023-11-22T02:57:45;100219.78;;;7.18;100.00
63190;BME280;49286;44.460;26.114;2023-11-22T03:00:11;100236.44;;;7.31;100.00
63190;BME280;49286;44.460;26.114;2023-11-22T03:02:40;100139.22;;;6.67;100.00
63190;BME280;49286;44.460;26.114;2023-11-22T03:05:11;100140.94;;;6.65;100.00
63190;BME280;49286;44.460;26.114;2023-11-22T03:07:38;100255.53;;;7.24;100.00
63190;BME280;49286;44.460;26.114;2023-11-22T03:10:04;100148.81;;;6.68;100.00
63190;BME280;49286;44.460;26.114;2023-11-22T03:12:30;100256.47;;;7.32;100.00
63190;BME280;49286;44.460;26.114;2023-11-22T03:14:55;100225.75;;;7.08;100.00
63190;BME280;49286;44.460;26.114;2023-11-22T03:17:26;100265.94;;;7.26;100.00
63190;BME280;49286;44.460;26.114;2023-11-22T03:19:53;100150.44;;;6.60;100.00
63190;BME280;49286;44.460;26.114;2023-11-22T03:22:19;100265.09;;;7.25;100.00
63190;BME280;49286;44.460;26.114;2023-11-22T03:24:45;100265.13;;;7.28;100.00
63190;BME280;49286;44.460;26.114;2023-11-22T03:27:10;100183.78;;;6.84;100.00
63190;BME280;49286;44.460;26.114;2023-11-22T03:29:37;100254.69;;;7.30;100.00
63190;BME280;49286;44.460;26.114;2023-11-22T03:32:03;100247.63;;;7.16;100.00
63190;BME280;49286;44.460;26.114;2023-11-22T03:34:29;100186.59;;;7.05;100.00
63190;BME280;49286;44.460;26.114;2023-11-22T03:36:54;100281.78;;;7.41;100.00
63190;BME280;49286;44.460;26.114;2023-11-22T03:39:20;100283.53;;;7.40;100.00
63190;BME280;49286;44.460;26.114;2023-11-22T03:41:45;100043.69;;;5.94;100.00
63190;BME280;49286;44.460;26.114;2023-11-22T03:44:11;100270.47;;;7.39;100.00
63190;BME280;49286;44.460;26.114;2023-11-22T03:46:45;100146.94;;;6.56;100.00
63190;BME280;49286;44.460;26.114;2023-11-22T03:49:10;100178.34;;;6.67;100.00
63190;BME280;49286;44.460;26.114;2023-11-22T03:51:50;100226.38;;;6.87;100.00
63190;BME280;49286;44.460;26.114;2023-11-22T03:54:15;100240.41;;;6.97;100.00
63190;BME280;49286;44.460;26.114;2023-11-22T03:56:41;100297.28;;;7.27;100.00
63190;BME280;49286;44.460;26.114;2023-11-22T03:59:07;100300.00;;;7.33;100.00
63190;BME280;49286;44.460;26.114;2023-11-22T04:01:33;100216.63;;;6.71;100.00
63190;BME280;49286;44.460;26.114;2023-11-22T04:03:58;100220.16;;;6.76;100.00
63190;BME280;49286;44.460;26.114;2023-11-22T04:06:24;100284.97;;;7.12;100.00
63190;BME280;49286;44.460;26.114;2023-11-22T04:08:49;100037.06;;;5.55;100.00
63190;BME280;49286;44.460;26.114;2023-11-22T04:11:16;100199.09;;;6.59;100.00
63190;BME280;49286;44.460;26.114;2023-11-22T04:13:43;100207.84;;;6.63;100.00
63190;BME280;49286;44.460;26.114;2023-11-22T04:16:09;100316.34;;;7.20;100.00
63190;BME280;49286;44.460;26.114;2023-11-22T04:18:40;100293.66;;;7.13;100.00
63190;BME280;49286;44.460;26.114;2023-11-22T04:21:06;100226.19;;;6.70;100.00
63190;BME280;49286;44.460;26.114;2023-11-22T04:23:33;100186.75;;;6.46;100.00
63190;BME280;49286;44.460;26.114;2023-11-22T04:25:59;100267.22;;;6.85;100.00
63190;BME280;49286;44.460;26.114;2023-11-22T04:28:25;100222.53;;;6.58;100.00
63190;BME280;49286;44.460;26.114;2023-11-22T04:30:52;100329.34;;;7.15;100.00
63190;BME280;49286;44.460;26.114;2023-11-22T04:33:19;100344.16;;;7.18;100.00
63190;BME280;49286;44.460;26.114;2023-11-22T04:35:44;100341.53;;;7.15;100.00
63190;BME280;49286;44.460;26.114;2023-11-22T04:38:10;100342.34;;;7.14;100.00
63190;BME280;49286;44.460;26.114;2023-11-22T04:40:35;100238.09;;;6.53;100.00
63190;BME280;49286;44.460;26.114;2023-11-22T04:43:01;100231.06;;;6.46;100.00
63190;BME280;49286;44.460;26.114;2023-11-22T04:45:27;100270.34;;;6.58;100.00
63190;BME280;49286;44.460;26.114;2023-11-22T04:47:53;100366.84;;;7.22;100.00
63190;BME280;49286;44.460;26.114;2023-11-22T04:50:19;100254.59;;;6.50;100.00
63190;BME280;49286;44.460;26.114;2023-11-22T04:52:44;100375.47;;;7.16;100.00
63190;BME280;49286;44.460;26.114;2023-11-22T04:55:10;100283.63;;;6.76;100.00
63190;BME280;49286;44.460;26.114;2023-11-22T04:57:35;100393.88;;;7.30;100.00
63190;BME280;49286;44.460;26.114;2023-11-22T05:00:01;100393.03;;;7.30;100.00
63190;BME280;49286;44.460;26.114;2023-11-22T05:02:28;100374.44;;;7.07;100.00
63190;BME280;49286;44.460;26.114;2023-11-22T05:04:54;100280.63;;;6.47;100.00
63190;BME280;49286;44.460;26.114;2023-11-22T05:07:19;100403.25;;;7.13;100.00
63190;BME280;49286;44.460;26.114;2023-11-22T05:09:45;100227.13;;;6.13;100.00
63190;BME280;49286;44.460;26.114;2023-11-22T05:12:10;100311.19;;;6.59;100.00
63190;BME280;49286;44.460;26.114;2023-11-22T05:14:37;100274.44;;;6.41;100.00
63190;BME280;49286;44.460;26.114;2023-11-22T05:17:10;100292.84;;;6.51;100.00
63190;BME280;49286;44.460;26.114;2023-11-22T05:19:36;100412.91;;;7.20;100.00
63190;BME280;49286;44.460;26.114;2023-11-22T05:22:01;100411.22;;;7.24;100.00
63190;BME280;49286;44.460;26.114;2023-11-22T05:24:27;100406.78;;;7.18;100.00
63190;BME280;49286;44.460;26.114;2023-11-22T05:26:53;100410.41;;;7.29;100.00
63190;BME280;49286;44.460;26.114;2023-11-22T05:29:33;100290.38;;;6.61;100.00
63190;BME280;49286;44.460;26.114;2023-11-22T05:32:05;100346.19;;;6.75;100.00
63190;BME280;49286;44.460;26.114;2023-11-22T05:34:32;100423.56;;;7.35;100.00
63190;BME280;49286;44.460;26.114;2023-11-22T05:36:58;100208.88;;;6.13;100.00
63190;BME280;49286;44.460;26.114;2023-11-22T05:39:24;100329.69;;;6.74;100.00
63190;BME280;49286;44.460;26.114;2023-11-22T05:41:50;100418.34;;;7.35;100.00
63190;BME280;49286;44.460;26.114;2023-11-22T05:44:17;100132.59;;;5.62;100.00
63190;BME280;49286;44.460;26.114;2023-11-22T05:46:51;100428.78;;;7.37;100.00
63190;BME280;49286;44.460;26.114;2023-11-22T05:49:16;100419.94;;;7.24;100.00
63190;BME280;49286;44.460;26.114;2023-11-22T05:51:42;100436.69;;;7.40;100.00
63190;BME280;49286;44.460;26.114;2023-11-22T05:54:07;100305.44;;;6.83;100.00
63190;BME280;49286;44.460;26.114;2023-11-22T05:56:34;100333.19;;;6.78;100.00
63190;BME280;49286;44.460;26.114;2023-11-22T05:58:59;100442.09;;;7.54;100.00
63190;BME280;49286;44.460;26.114;2023-11-22T06:01:25;100337.38;;;6.65;100.00
63190;BME280;49286;44.460;26.114;2023-11-22T06:03:52;100449.53;;;7.28;100.00
63190;BME280;49286;44.460;26.114;2023-11-22T06:06:18;100382.94;;;6.92;100.00
63190;BME280;49286;44.460;26.114;2023-11-22T06:08:47;100339.16;;;6.68;100.00
63190;BME280;49286;44.460;26.114;2023-11-22T06:11:24;100318.16;;;6.60;100.00
63190;BME280;49286;44.460;26.114;2023-11-22T06:13:50;100338.31;;;6.70;100.00
63190;BME280;49286;44.460;26.114;2023-11-22T06:16:16;100411.88;;;7.07;100.00
63190;BME280;49286;44.460;26.114;2023-11-22T06:18:41;100438.25;;;7.29;100.00
63190;BME280;49286;44.460;26.114;2023-11-22T06:21:09;100446.00;;;7.23;100.00
63190;BME280;49286;44.460;26.114;2023-11-22T06:23:34;100463.50;;;7.28;100.00
63190;BME280;49286;44.460;26.114;2023-11-22T06:26:00;100372.03;;;6.58;100.00
63190;BME280;49286;44.460;26.114;2023-11-22T06:28:25;100485.13;;;7.23;100.00
63190;BME280;49286;44.460;26.114;2023-11-22T06:30:52;100472.84;;;7.15;100.00
63190;BME280;49286;44.460;26.114;2023-11-22T06:33:18;100464.06;;;7.09;100.00
63190;BME280;49286;44.460;26.114;2023-11-22T06:35:44;100358.84;;;6.49;100.00
63190;BME280;49286;44.460;26.114;2023-11-22T06:38:10;100417.47;;;6.75;100.00
63190;BME280;49286;44.460;26.114;2023-11-22T06:40:35;100500.78;;;7.21;100.00
63190;BME280;49286;44.460;26.114;2023-11-22T06:43:01;100479.00;;;7.19;100.00
63190;BME280;49286;44.460;26.114;2023-11-22T06:45:29;100482.69;;;7.33;100.00
63190;BME280;49286;44.460;26.114;2023-11-22T06:47:56;100505.22;;;7.27;100.00
63190;BME280;49286;44.460;26.114;2023-11-22T06:50:22;100504.31;;;7.25;100.00
63190;BME280;49286;44.460;26.114;2023-11-22T06:52:53;100475.28;;;7.03;100.00
63190;BME280;49286;44.460;26.114;2023-11-22T06:55:19;100513.06;;;7.30;100.00
63190;BME280;49286;44.460;26.114;2023-11-22T06:57:45;100529.59;;;7.29;100.00
63190;BME280;49286;44.460;26.114;2023-11-22T07:00:11;100420.66;;;6.58;100.00
63190;BME280;49286;44.460;26.114;2023-11-22T07:02:38;100331.41;;;6.16;100.00
63190;BME280;49286;44.460;26.114;2023-11-22T07:05:05;100549.66;;;7.31;100.00
63190;BME280;49286;44.460;26.114;2023-11-22T07:07:34;100437.53;;;6.81;100.00
63190;BME280;49286;44.460;26.114;2023-11-22T07:10:00;100550.63;;;7.38;100.00
63190;BME280;49286;44.460;26.114;2023-11-22T07:12:25;100391.75;;;6.42;100.00
63190;BME280;49286;44.460;26.114;2023-11-22T07:14:52;100453.88;;;6.69;100.00
63190;BME280;49286;44.460;26.114;2023-11-22T07:17:17;100540.81;;;7.23;100.00
63190;BME280;49286;44.460;26.114;2023-11-22T07:19:43;100561.81;;;7.29;100.00
63190;BME280;49286;44.460;26.114;2023-11-22T07:22:16;100518.78;;;7.04;100.00
63190;BME280;49286;44.460;26.114;2023-11-22T07:24:43;100533.66;;;7.10;100.00
63190;BME280;49286;44.460;26.114;2023-11-22T07:27:11;100577.50;;;7.31;100.00
63190;BME280;49286;44.460;26.114;2023-11-22T07:29:40;100587.00;;;7.27;100.00
63190;BME280;49286;44.460;26.114;2023-11-22T07:32:06;100584.50;;;7.35;100.00
63190;BME280;49286;44.460;26.114;2023-11-22T07:34:34;100602.81;;;7.36;100.00
63190;BME280;49286;44.460;26.114;2023-11-22T07:37:00;100548.22;;;6.95;100.00
63190;BME280;49286;44.460;26.114;2023-11-22T07:39:26;100533.34;;;6.91;100.00
63190;BME280;49286;44.460;26.114;2023-11-22T07:41:55;100601.75;;;7.24;100.00
63190;BME280;49286;44.460;26.114;2023-11-22T07:44:25;100621.78;;;7.28;100.00
63190;BME280;49286;44.460;26.114;2023-11-22T07:46:50;100630.50;;;7.27;100.00
63190;BME280;49286;44.460;26.114;2023-11-22T07:49:19;100635.81;;;7.33;100.00
63190;BME280;49286;44.460;26.114;2023-11-22T07:51:46;100638.28;;;7.25;100.00
63190;BME280;49286;44.460;26.114;2023-11-22T07:54:12;100654.22;;;7.42;100.00
63190;BME280;49286;44.460;26.114;2023-11-22T07:56:41;100668.06;;;7.36;100.00
63190;BME280;49286;44.460;26.114;2023-11-22T07:59:11;100669.84;;;7.39;100.00
63190;BME280;49286;44.460;26.114;2023-11-22T08:01:37;100688.22;;;7.45;100.00
63190;BME280;49286;44.460;26.114;2023-11-22T08:04:03;100573.28;;;6.87;100.00
63190;BME280;49286;44.460;26.114;2023-11-22T08:06:31;100676.09;;;7.47;100.00
63190;BME280;49286;44.460;26.114;2023-11-22T08:08:58;100566.13;;;6.75;100.00
63190;BME280;49286;44.460;26.114;2023-11-22T08:11:27;100692.78;;;7.57;100.00
63190;BME280;49286;44.460;26.114;2023-11-22T08:13:53;100601.28;;;6.97;100.00
63190;BME280;49286;44.460;26.114;2023-11-22T08:16:20;100677.50;;;7.30;100.00
63190;BME280;49286;44.460;26.114;2023-11-22T08:18:45;100722.41;;;7.59;100.00
63190;BME280;49286;44.460;26.114;2023-11-22T08:21:13;100670.34;;;7.18;100.00
63190;BME280;49286;44.460;26.114;2023-11-22T08:23:38;100615.78;;;6.82;100.00
63190;BME280;49286;44.460;26.114;2023-11-22T08:26:06;100730.34;;;7.64;100.00
63190;BME280;49286;44.460;26.114;2023-11-22T08:28:33;100646.03;;;7.21;100.00
63190;BME280;49286;44.460;26.114;2023-11-22T08:30:59;100605.81;;;7.08;100.00
63190;BME280;49286;44.460;26.114;2023-11-22T08:33:26;100692.50;;;7.42;100.00
63190;BME280;49286;44.460;26.114;2023-11-22T08:35:51;100697.94;;;7.52;100.00
63190;BME280;49286;44.460;26.114;2023-11-22T08:38:24;100637.13;;;7.09;100.00
63190;BME280;49286;44.460;26.114;2023-11-22T08:40:52;100715.97;;;7.38;100.00
63190;BME280;49286;44.460;26.114;2023-11-22T08:43:17;100726.56;;;7.48;100.00
63190;BME280;49286;44.460;26.114;2023-11-22T08:45:50;100605.28;;;6.77;100.00
63190;BME280;49286;44.460;26.114;2023-11-22T08:48:16;100609.56;;;6.75;100.00
63190;BME280;49286;44.460;26.114;2023-11-22T08:50:42;100638.66;;;6.96;100.00
63190;BME280;49286;44.460;26.114;2023-11-22T08:53:10;100727.41;;;7.45;100.00
63190;BME280;49286;44.460;26.114;2023-11-22T08:55:36;100658.09;;;7.12;100.00
63190;BME280;49286;44.460;26.114;2023-11-22T08:58:01;100744.63;;;7.35;100.00
63190;BME280;49286;44.460;26.114;2023-11-22T09:00:27;100743.22;;;7.56;100.00
63190;BME280;49286;44.460;26.114;2023-11-22T09:02:54;100634.31;;;6.97;100.00
63190;BME280;49286;44.460;26.114;2023-11-22T09:05:20;100743.34;;;7.62;100.00
63190;BME280;49286;44.460;26.114;2023-11-22T09:07:47;100721.34;;;7.48;100.00
63190;BME280;49286;44.460;26.114;2023-11-22T09:10:13;100663.47;;;7.23;100.00
63190;BME280;49286;44.460;26.114;2023-11-22T09:12:40;100671.41;;;7.29;100.00
63190;BME280;49286;44.460;26.114;2023-11-22T09:15:13;100643.50;;;7.24;100.00
63190;BME280;49286;44.460;26.114;2023-11-22T09:17:42;100677.44;;;7.25;100.00
63190;BME280;49286;44.460;26.114;2023-11-22T09:20:10;100726.03;;;7.66;100.00
63190;BME280;49286;44.460;26.114;2023-11-22T09:22:43;100697.19;;;7.59;100.00
63190;BME280;49286;44.460;26.114;2023-11-22T09:25:16;100718.25;;;7.70;100.00
63190;BME280;49286;44.460;26.114;2023-11-22T09:27:53;100644.31;;;7.21;100.00
63190;BME280;49286;44.460;26.114;2023-11-22T09:30:28;100688.06;;;7.36;100.00
63190;BME280;49286;44.460;26.114;2023-11-22T09:33:01;100712.16;;;7.71;100.00
63190;BME280;49286;44.460;26.114;2023-11-22T09:35:27;100624.91;;;7.07;100.00
63190;BME280;49286;44.460;26.114;2023-11-22T09:37:58;100677.44;;;7.25;100.00
63190;BME280;49286;44.460;26.114;2023-11-22T09:40:24;100718.19;;;7.67;100.00
63190;BME280;49286;44.460;26.114;2023-11-22T09:42:52;100684.84;;;7.51;100.00
63190;BME280;49286;44.460;26.114;2023-11-22T09:45:20;100616.25;;;7.09;100.00
63190;BME280;49286;44.460;26.114;2023-11-22T09:47:46;100611.13;;;7.12;100.00
63190;BME280;49286;44.460;26.114;2023-11-22T09:50:19;100503.81;;;6.42;100.00
63190;BME280;49286;44.460;26.114;2023-11-22T09:52:50;100695.44;;;7.60;100.00
63190;BME280;49286;44.460;26.114;2023-11-22T09:55:17;100616.38;;;7.15;100.00
63190;BME280;49286;44.460;26.114;2023-11-22T09:57:43;100652.59;;;7.49;100.00
63190;BME280;49286;44.460;26.114;2023-11-22T10:00:11;100654.81;;;7.24;100.00
63190;BME280;49286;44.460;26.114;2023-11-22T10:02:40;100641.00;;;7.31;100.00
63190;BME280;49286;44.460;26.114;2023-11-22T10:05:06;100518.19;;;6.69;100.00
63190;BME280;49286;44.460;26.114;2023-11-22T10:07:34;100693.84;;;7.68;100.00
63190;BME280;49286;44.460;26.114;2023-11-22T10:10:06;100696.47;;;7.68;100.00
63190;BME280;49286;44.460;26.114;2023-11-22T10:12:36;100694.88;;;7.78;100.00
63190;BME280;49286;44.460;26.114;2023-11-22T10:15:12;100586.78;;;7.15;100.00
63190;BME280;49286;44.460;26.114;2023-11-22T10:17:38;100685.94;;;7.65;100.00
63190;BME280;49286;44.460;26.114;2023-11-22T10:20:04;100692.22;;;7.76;100.00
63190;BME280;49286;44.460;26.114;2023-11-22T10:22:43;100690.25;;;7.61;100.00
63190;BME280;49286;44.460;26.114;2023-11-22T10:25:10;100692.81;;;7.60;100.00
63190;BME280;49286;44.460;26.114;2023-11-22T10:27:37;100593.59;;;7.07;100.00
63190;BME280;49286;44.460;26.114;2023-11-22T10:30:03;100676.25;;;7.56;100.00
63190;BME280;49286;44.460;26.114;2023-11-22T10:32:30;100570.72;;;6.90;100.00
63190;BME280;49286;44.460;26.114;2023-11-22T10:34:55;100692.00;;;7.61;100.00
63190;BME280;49286;44.460;26.114;2023-11-22T10:37:21;100566.81;;;6.65;100.00
63190;BME280;49286;44.460;26.114;2023-11-22T10:39:52;100579.38;;;6.88;100.00
63190;BME280;49286;44.460;26.114;2023-11-22T10:42:19;100627.72;;;7.17;100.00
63190;BME280;49286;44.460;26.114;2023-11-22T10:44:45;100652.16;;;7.21;100.00
63190;BME280;49286;44.460;26.114;2023-11-22T10:47:14;100630.22;;;7.11;100.00
63190;BME280;49286;44.460;26.114;2023-11-22T10:49:44;100690.75;;;7.40;100.00
63190;BME280;49286;44.460;26.114;2023-11-22T10:52:13;100702.03;;;7.39;100.00
63190;BME280;49286;44.460;26.114;2023-11-22T10:54:44;100689.97;;;7.45;100.00
63190;BME280;49286;44.460;26.114;2023-11-22T10:57:17;100597.16;;;7.10;100.00
63190;BME280;49286;44.460;26.114;2023-11-22T10:59:50;100701.66;;;7.67;100.00
63190;BME280;49286;44.460;26.114;2023-11-22T11:02:21;100707.53;;;7.55;100.00
63190;BME280;49286;44.460;26.114;2023-11-22T11:05:02;100689.50;;;7.69;100.00
63190;BME280;49286;44.460;26.114;2023-11-22T11:07:40;100669.22;;;7.52;100.00
63190;BME280;49286;44.460;26.114;2023-11-22T11:10:09;100676.09;;;7.47;100.00
63190;BME280;49286;44.460;26.114;2023-11-22T11:12:40;100671.69;;;7.45;100.00
63190;BME280;49286;44.460;26.114;2023-11-22T11:15:09;100712.28;;;7.77;100.00
63190;BME280;49286;44.460;26.114;2023-11-22T11:17:35;100669.13;;;7.48;100.00
63190;BME280;49286;44.460;26.114;2023-11-22T11:20:04;100720.03;;;7.74;100.00
63190;BME280;49286;44.460;26.114;2023-11-22T11:22:32;100707.94;;;7.79;100.00
63190;BME280;49286;44.460;26.114;2023-11-22T11:25:04;100672.69;;;7.53;100.00
63190;BME280;49286;44.460;26.114;2023-11-22T11:27:33;100692.25;;;7.79;100.00
63190;BME280;49286;44.460;26.114;2023-11-22T11:32:57;100683.25;;;7.59;100.00
63190;BME280;49286;44.460;26.114;2023-11-22T11:35:42;100360.19;;;5.78;100.00
63190;BME280;49286;44.460;26.114;2023-11-22T11:38:07;100660.28;;;7.39;100.00
63190;BME280;49286;44.460;26.114;2023-11-22T11:40:35;100655.50;;;7.15;100.00
63190;BME280;49286;44.460;26.114;2023-11-22T11:43:02;100600.72;;;7.15;100.00
63190;BME280;49286;44.460;26.114;2023-11-22T11:45:28;100649.22;;;7.54;100.00
63190;BME280;49286;44.460;26.114;2023-11-22T11:47:55;100708.97;;;7.89;100.00
63190;BME280;49286;44.460;26.114;2023-11-22T11:50:21;100700.13;;;7.81;100.00
63190;BME280;49286;44.460;26.114;2023-11-22T11:52:50;100582.56;;;7.22;100.00
63190;BME280;49286;44.460;26.114;2023-11-22T11:55:15;100614.25;;;7.45;100.00
63190;BME280;49286;44.460;26.114;2023-11-22T11:57:41;100693.38;;;7.94;100.00
63190;BME280;49286;44.460;26.114;2023-11-22T12:00:08;100688.91;;;7.88;100.00
63190;BME280;49286;44.460;26.114;2023-11-22T12:02:35;100708.16;;;7.93;100.00
63190;BME280;49286;44.460;26.114;2023-11-22T12:05:00;100615.13;;;7.45;100.00
63190;BME280;49286;44.460;26.114;2023-11-22T12:07:31;100652.06;;;7.68;100.00
63190;BME280;49286;44.460;26.114;2023-11-22T12:09:57;100659.06;;;7.72;100.00
63190;BME280;49286;44.460;26.114;2023-11-22T12:12:23;100696.03;;;7.97;100.00
63190;BME280;49286;44.460;26.114;2023-11-22T12:15:05;100714.38;;;8.01;100.00
63190;BME280;49286;44.460;26.114;2023-11-22T12:17:32;100727.59;;;8.11;100.00
63190;BME280;49286;44.460;26.114;2023-11-22T12:20:13;100705.59;;;7.98;100.00
63190;BME280;49286;44.460;26.114;2023-11-22T12:22:41;100619.41;;;7.42;100.00
63190;BME280;49286;44.460;26.114;2023-11-22T12:25:08;100742.47;;;8.15;100.00
63190;BME280;49286;44.460;26.114;2023-11-22T12:27:38;100667.69;;;7.67;100.00
63190;BME280;49286;44.460;26.114;2023-11-22T12:30:05;100730.97;;;8.03;100.00
63190;BME280;49286;44.460;26.114;2023-11-22T12:32:31;100702.75;;;7.81;100.00
63190;BME280;49286;44.460;26.114;2023-11-22T12:34:58;100586.03;;;7.22;100.00
63190;BME280;49286;44.460;26.114;2023-11-22T12:37:24;100679.09;;;7.72;100.00
63190;BME280;49286;44.460;26.114;2023-11-22T12:39:52;100696.53;;;7.74;100.00
63190;BME280;49286;44.460;26.114;2023-11-22T12:42:18;100658.75;;;7.52;100.00
63190;BME280;49286;44.460;26.114;2023-11-22T12:44:50;100634.41;;;7.53;100.00